Terminal Aerodrome Forecast
Issued by NWS

Home | Current Version | Previous Version | Text Only | Print | Product List | Glossary On
Versions: 1 2 3 4 5 6 7 8 9 10 11 12 13 14 15 16 17 18 19 20 21 22 23 24 25 26 27 28 29 30 31 32 33 34 35 36 37 38 39 40 41 42 43 44 45 46 47 48 49 50
000
FTUS44 KHGX 180531
TAFIAH
TAF
KIAH 180531Z 1806/1912 11007KT P6SM VCSH SCT009 OVC013
     FM180900 12005KT 5SM -RA BR SCT004 OVC009
     FM181800 07006KT P6SM VCSH BKN020
     FM190000 05005KT P6SM -RA SCT009 BKN012
     FM190600 06005KT 6SM RA BR BKN009=

USA.gov is the U.S. government's official web portal to all federal, state and local government web resources and services.